sensor_id;sensor_type;location;lat;lon;timestamp;temperature;humidity
573;DHT22;271;51.114;13.780;2022-09-03T00:00:55;13.50;1.00
573;DHT22;271;51.114;13.780;2022-09-03T00:03:28;13.50;1.00
573;DHT22;271;51.114;13.780;2022-09-03T00:06:09;13.50;1.00
573;DHT22;271;51.114;13.780;2022-09-03T00:08:41;13.40;1.00
573;DHT22;271;51.114;13.780;2022-09-03T00:11:15;13.50;1.00
573;DHT22;271;51.114;13.780;2022-09-03T00:13:46;13.50;1.00
573;DHT22;271;51.114;13.780;2022-09-03T00:16:18;13.50;1.00
573;DHT22;271;51.114;13.780;2022-09-03T00:18:49;13.60;1.00
573;DHT22;271;51.114;13.780;2022-09-03T00:21:25;13.60;1.00
573;DHT22;271;51.114;13.780;2022-09-03T00:23:53;13.60;1.00
573;DHT22;271;51.114;13.780;2022-09-03T00:26:25;13.50;1.00
573;DHT22;271;51.114;13.780;2022-09-03T00:28:57;13.60;1.00
573;DHT22;271;51.114;13.780;2022-09-03T00:31:29;13.40;1.00
573;DHT22;271;51.114;13.780;2022-09-03T00:34:01;13.50;1.00
573;DHT22;271;51.114;13.780;2022-09-03T00:36:34;13.60;1.00
573;DHT22;271;51.114;13.780;2022-09-03T00:39:08;13.50;1.00
573;DHT22;271;51.114;13.780;2022-09-03T00:41:39;13.50;1.00
573;DHT22;271;51.114;13.780;2022-09-03T00:44:47;13.40;1.00
573;DHT22;271;51.114;13.780;2022-09-03T00:47:25;13.30;1.00
573;DHT22;271;51.114;13.780;2022-09-03T00:50:02;13.30;1.00
573;DHT22;271;51.114;13.780;2022-09-03T00:52:41;13.10;1.00
573;DHT22;271;51.114;13.780;2022-09-03T00:55:17;13.00;1.00
573;DHT22;271;51.114;13.780;2022-09-03T00:57:54;12.90;1.00
573;DHT22;271;51.114;13.780;2022-09-03T01:00:22;12.80;1.00
573;DHT22;271;51.114;13.780;2022-09-03T01:03:00;12.80;1.00
573;DHT22;271;51.114;13.780;2022-09-03T01:05:53;12.80;1.00
573;DHT22;271;51.114;13.780;2022-09-03T01:11:22;12.60;1.00
573;DHT22;271;51.114;13.780;2022-09-03T01:14:12;12.60;1.00
573;DHT22;271;51.114;13.780;2022-09-03T01:16:47;12.60;1.00
573;DHT22;271;51.114;13.780;2022-09-03T01:19:42;12.40;1.00
573;DHT22;271;51.114;13.780;2022-09-03T01:22:40;12.30;1.00
573;DHT22;271;51.114;13.780;2022-09-03T01:25:22;12.30;1.00
573;DHT22;271;51.114;13.780;2022-09-03T01:28:18;12.30;1.00
573;DHT22;271;51.114;13.780;2022-09-03T01:30:53;12.20;1.00
573;DHT22;271;51.114;13.780;2022-09-03T01:33:26;12.20;1.00
573;DHT22;271;51.114;13.780;2022-09-03T01:35:59;12.20;1.00
573;DHT22;271;51.114;13.780;2022-09-03T01:38:33;12.20;1.00
573;DHT22;271;51.114;13.780;2022-09-03T01:41:10;12.10;1.00
573;DHT22;271;51.114;13.780;2022-09-03T01:44:16;12.20;1.00
573;DHT22;271;51.114;13.780;2022-09-03T01:46:51;12.00;1.00
573;DHT22;271;51.114;13.780;2022-09-03T01:49:24;12.10;1.00
573;DHT22;271;51.114;13.780;2022-09-03T01:51:59;12.00;1.00
573;DHT22;271;51.114;13.780;2022-09-03T01:54:51;12.00;1.00
573;DHT22;271;51.114;13.780;2022-09-03T01:57:44;12.00;1.00
573;DHT22;271;51.114;13.780;2022-09-03T02:00:15;12.00;1.00
573;DHT22;271;51.114;13.780;2022-09-03T02:02:46;11.90;1.00
573;DHT22;271;51.114;13.780;2022-09-03T02:05:15;11.90;1.00
573;DHT22;271;51.114;13.780;2022-09-03T02:07:46;11.80;1.00
573;DHT22;271;51.114;13.780;2022-09-03T02:10:15;11.80;1.00
573;DHT22;271;51.114;13.780;2022-09-03T02:12:45;11.80;1.00
573;DHT22;271;51.114;13.780;2022-09-03T02:15:17;11.70;1.00
573;DHT22;271;51.114;13.780;2022-09-03T02:17:46;11.70;1.00
573;DHT22;271;51.114;13.780;2022-09-03T02:20:18;11.60;1.00
573;DHT22;271;51.114;13.780;2022-09-03T02:22:46;11.70;1.00
573;DHT22;271;51.114;13.780;2022-09-03T02:25:13;11.70;1.00
573;DHT22;271;51.114;13.780;2022-09-03T02:27:40;11.70;1.00
573;DHT22;271;51.114;13.780;2022-09-03T02:30:08;11.60;1.00
573;DHT22;271;51.114;13.780;2022-09-03T02:32:37;11.70;1.00
573;DHT22;271;51.114;13.780;2022-09-03T02:35:04;11.60;1.00
573;DHT22;271;51.114;13.780;2022-09-03T02:37:32;11.60;1.00
573;DHT22;271;51.114;13.780;2022-09-03T02:39:59;11.60;1.00
573;DHT22;271;51.114;13.780;2022-09-03T02:42:26;11.60;1.00
573;DHT22;271;51.114;13.780;2022-09-03T02:44:56;11.70;1.00
573;DHT22;271;51.114;13.780;2022-09-03T02:47:30;11.60;1.00
573;DHT22;271;51.114;13.780;2022-09-03T02:49:59;11.60;1.00
573;DHT22;271;51.114;13.780;2022-09-03T02:52:26;11.70;1.00
573;DHT22;271;51.114;13.780;2022-09-03T02:54:53;11.80;1.00
573;DHT22;271;51.114;13.780;2022-09-03T02:57:19;11.70;1.00
573;DHT22;271;51.114;13.780;2022-09-03T02:59:46;11.60;1.00
573;DHT22;271;51.114;13.780;2022-09-03T03:02:13;11.60;1.00
573;DHT22;271;51.114;13.780;2022-09-03T03:04:40;11.60;1.00
573;DHT22;271;51.114;13.780;2022-09-03T03:07:08;11.70;1.00
573;DHT22;271;51.114;13.780;2022-09-03T03:09:35;11.60;1.00
573;DHT22;271;51.114;13.780;2022-09-03T03:12:02;11.80;1.00
573;DHT22;271;51.114;13.780;2022-09-03T03:14:29;11.60;1.00
573;DHT22;271;51.114;13.780;2022-09-03T03:16:56;11.60;1.00
573;DHT22;271;51.114;13.780;2022-09-03T03:19:23;11.50;1.00
573;DHT22;271;51.114;13.780;2022-09-03T03:21:50;11.60;1.00
573;DHT22;271;51.114;13.780;2022-09-03T03:24:18;11.50;1.00
573;DHT22;271;51.114;13.780;2022-09-03T03:26:45;11.50;1.00
573;DHT22;271;51.114;13.780;2022-09-03T03:29:14;11.50;1.00
573;DHT22;271;51.114;13.780;2022-09-03T03:31:42;11.40;1.00
573;DHT22;271;51.114;13.780;2022-09-03T03:34:08;11.40;1.00
573;DHT22;271;51.114;13.780;2022-09-03T03:36:35;11.40;1.00
573;DHT22;271;51.114;13.780;2022-09-03T03:39:02;11.30;1.00
573;DHT22;271;51.114;13.780;2022-09-03T03:41:32;11.30;1.00
573;DHT22;271;51.114;13.780;2022-09-03T03:44:01;11.20;1.00
573;DHT22;271;51.114;13.780;2022-09-03T03:46:30;11.10;1.00
573;DHT22;271;51.114;13.780;2022-09-03T03:48:57;11.10;1.00
573;DHT22;271;51.114;13.780;2022-09-03T03:51:26;11.20;1.00
573;DHT22;271;51.114;13.780;2022-09-03T03:53:54;11.10;1.00
573;DHT22;271;51.114;13.780;2022-09-03T03:56:22;11.00;1.00
573;DHT22;271;51.114;13.780;2022-09-03T03:58:52;11.00;1.00
573;DHT22;271;51.114;13.780;2022-09-03T04:01:24;11.00;1.00
573;DHT22;271;51.114;13.780;2022-09-03T04:03:51;11.00;1.00
573;DHT22;271;51.114;13.780;2022-09-03T04:06:20;11.00;1.00
573;DHT22;271;51.114;13.780;2022-09-03T04:08:48;11.00;1.00
573;DHT22;271;51.114;13.780;2022-09-03T04:11:16;10.90;1.00
573;DHT22;271;51.114;13.780;2022-09-03T04:13:44;10.90;1.00
573;DHT22;271;51.114;13.780;2022-09-03T04:16:14;10.80;1.00
573;DHT22;271;51.114;13.780;2022-09-03T04:18:43;10.80;1.00
573;DHT22;271;51.114;13.780;2022-09-03T04:21:12;10.80;1.00
573;DHT22;271;51.114;13.780;2022-09-03T04:23:41;10.80;1.00
573;DHT22;271;51.114;13.780;2022-09-03T04:26:09;10.80;1.00
573;DHT22;271;51.114;13.780;2022-09-03T04:28:37;10.70;1.00
573;DHT22;271;51.114;13.780;2022-09-03T04:31:08;10.70;1.00
573;DHT22;271;51.114;13.780;2022-09-03T04:33:36;10.70;1.00
573;DHT22;271;51.114;13.780;2022-09-03T04:36:05;10.60;1.00
573;DHT22;271;51.114;13.780;2022-09-03T04:38:32;10.70;1.00
573;DHT22;271;51.114;13.780;2022-09-03T04:41:00;10.60;1.00
573;DHT22;271;51.114;13.780;2022-09-03T04:43:27;10.70;1.00
573;DHT22;271;51.114;13.780;2022-09-03T04:45:58;10.70;1.00
573;DHT22;271;51.114;13.780;2022-09-03T04:48:25;10.70;1.00
573;DHT22;271;51.114;13.780;2022-09-03T04:50:53;10.60;1.00
573;DHT22;271;51.114;13.780;2022-09-03T04:53:21;10.60;1.00
573;DHT22;271;51.114;13.780;2022-09-03T04:55:48;10.60;1.00
573;DHT22;271;51.114;13.780;2022-09-03T04:58:15;10.60;1.00
573;DHT22;271;51.114;13.780;2022-09-03T05:00:42;10.60;1.00
573;DHT22;271;51.114;13.780;2022-09-03T05:03:09;10.60;1.00
573;DHT22;271;51.114;13.780;2022-09-03T05:05:37;10.60;1.00
573;DHT22;271;51.114;13.780;2022-09-03T05:08:05;10.60;1.00
573;DHT22;271;51.114;13.780;2022-09-03T05:10:32;10.60;1.00
573;DHT22;271;51.114;13.780;2022-09-03T05:13:00;10.60;1.00
573;DHT22;271;51.114;13.780;2022-09-03T05:15:28;10.70;1.00
573;DHT22;271;51.114;13.780;2022-09-03T05:17:56;10.70;1.00
573;DHT22;271;51.114;13.780;2022-09-03T05:20:23;10.80;1.00
573;DHT22;271;51.114;13.780;2022-09-03T05:22:51;10.80;1.00
573;DHT22;271;51.114;13.780;2022-09-03T05:25:19;11.00;1.00
573;DHT22;271;51.114;13.780;2022-09-03T05:27:46;11.00;1.00
573;DHT22;271;51.114;13.780;2022-09-03T05:30:13;11.10;1.00
573;DHT22;271;51.114;13.780;2022-09-03T05:32:40;11.20;1.00
573;DHT22;271;51.114;13.780;2022-09-03T05:35:08;11.30;1.00
573;DHT22;271;51.114;13.780;2022-09-03T05:37:35;11.40;1.00
573;DHT22;271;51.114;13.780;2022-09-03T05:40:03;11.50;1.00
573;DHT22;271;51.114;13.780;2022-09-03T05:42:31;11.60;1.00
573;DHT22;271;51.114;13.780;2022-09-03T05:45:05;11.70;1.00
573;DHT22;271;51.114;13.780;2022-09-03T05:47:36;11.90;1.00
573;DHT22;271;51.114;13.780;2022-09-03T05:50:05;11.90;1.00
573;DHT22;271;51.114;13.780;2022-09-03T05:52:32;12.30;1.00
573;DHT22;271;51.114;13.780;2022-09-03T05:54:58;12.40;1.00
573;DHT22;271;51.114;13.780;2022-09-03T05:57:25;12.50;1.00
573;DHT22;271;51.114;13.780;2022-09-03T05:59:55;12.60;1.00
573;DHT22;271;51.114;13.780;2022-09-03T06:02:22;12.80;1.00
573;DHT22;271;51.114;13.780;2022-09-03T06:04:49;12.90;1.00
573;DHT22;271;51.114;13.780;2022-09-03T06:07:16;13.10;1.00
573;DHT22;271;51.114;13.780;2022-09-03T06:09:42;13.30;1.00
573;DHT22;271;51.114;13.780;2022-09-03T06:12:09;13.40;1.00
573;DHT22;271;51.114;13.780;2022-09-03T06:14:36;13.50;1.00
573;DHT22;271;51.114;13.780;2022-09-03T06:17:04;13.70;1.00
573;DHT22;271;51.114;13.780;2022-09-03T06:19:31;13.90;1.00
573;DHT22;271;51.114;13.780;2022-09-03T06:21:58;14.10;1.00
573;DHT22;271;51.114;13.780;2022-09-03T06:24:24;14.20;1.00
573;DHT22;271;51.114;13.780;2022-09-03T06:26:54;14.30;1.00
573;DHT22;271;51.114;13.780;2022-09-03T06:29:21;14.40;1.00
573;DHT22;271;51.114;13.780;2022-09-03T06:31:48;14.60;1.00
573;DHT22;271;51.114;13.780;2022-09-03T06:34:16;14.70;1.00
573;DHT22;271;51.114;13.780;2022-09-03T06:36:44;15.00;1.00
573;DHT22;271;51.114;13.780;2022-09-03T06:39:11;15.20;1.00
573;DHT22;271;51.114;13.780;2022-09-03T06:41:37;15.40;1.00
573;DHT22;271;51.114;13.780;2022-09-03T06:44:05;15.70;1.00
573;DHT22;271;51.114;13.780;2022-09-03T06:46:37;15.90;1.00
573;DHT22;271;51.114;13.780;2022-09-03T06:49:04;16.00;1.00
573;DHT22;271;51.114;13.780;2022-09-03T06:51:35;16.20;1.00
573;DHT22;271;51.114;13.780;2022-09-03T06:54:03;16.50;1.00
573;DHT22;271;51.114;13.780;2022-09-03T06:56:31;16.60;1.00
573;DHT22;271;51.114;13.780;2022-09-03T06:59:02;16.80;1.00
573;DHT22;271;51.114;13.780;2022-09-03T07:01:31;17.00;1.00
573;DHT22;271;51.114;13.780;2022-09-03T07:04:00;17.30;1.00
573;DHT22;271;51.114;13.780;2022-09-03T07:06:28;17.40;1.00
573;DHT22;271;51.114;13.780;2022-09-03T07:08:57;17.60;1.00
573;DHT22;271;51.114;13.780;2022-09-03T07:11:26;17.80;1.00
573;DHT22;271;51.114;13.780;2022-09-03T07:13:54;18.10;1.00
573;DHT22;271;51.114;13.780;2022-09-03T07:16:22;18.50;1.00
573;DHT22;271;51.114;13.780;2022-09-03T07:18:50;19.00;1.00
573;DHT22;271;51.114;13.780;2022-09-03T07:21:19;19.10;1.00
573;DHT22;271;51.114;13.780;2022-09-03T07:23:46;19.20;1.00
573;DHT22;271;51.114;13.780;2022-09-03T07:26:16;19.20;1.00
573;DHT22;271;51.114;13.780;2022-09-03T07:28:44;19.50;1.00
573;DHT22;271;51.114;13.780;2022-09-03T07:31:13;19.80;1.00
573;DHT22;271;51.114;13.780;2022-09-03T07:33:41;20.10;1.00
573;DHT22;271;51.114;13.780;2022-09-03T07:36:09;20.50;1.00
573;DHT22;271;51.114;13.780;2022-09-03T07:38:39;20.80;1.00
573;DHT22;271;51.114;13.780;2022-09-03T07:41:07;21.30;1.00
573;DHT22;271;51.114;13.780;2022-09-03T07:43:37;21.60;1.00
573;DHT22;271;51.114;13.780;2022-09-03T07:46:05;21.70;1.00
573;DHT22;271;51.114;13.780;2022-09-03T07:48:33;21.60;1.00
573;DHT22;271;51.114;13.780;2022-09-03T07:51:00;21.30;1.00
573;DHT22;271;51.114;13.780;2022-09-03T07:53:28;21.30;1.00
573;DHT22;271;51.114;13.780;2022-09-03T07:56:00;21.40;1.00
573;DHT22;271;51.114;13.780;2022-09-03T07:58:28;21.40;1.00
573;DHT22;271;51.114;13.780;2022-09-03T08:00:56;21.10;1.00
573;DHT22;271;51.114;13.780;2022-09-03T08:03:23;21.40;1.00
573;DHT22;271;51.114;13.780;2022-09-03T08:05:50;21.40;1.00
573;DHT22;271;51.114;13.780;2022-09-03T08:08:17;21.70;1.00
573;DHT22;271;51.114;13.780;2022-09-03T08:10:44;21.70;1.00
573;DHT22;271;51.114;13.780;2022-09-03T08:13:11;21.80;1.00
573;DHT22;271;51.114;13.780;2022-09-03T08:15:37;21.60;1.00
573;DHT22;271;51.114;13.780;2022-09-03T08:18:09;21.70;1.00
573;DHT22;271;51.114;13.780;2022-09-03T08:20:36;21.60;1.00
573;DHT22;271;51.114;13.780;2022-09-03T08:23:04;21.80;1.00
573;DHT22;271;51.114;13.780;2022-09-03T08:25:31;22.00;1.00
573;DHT22;271;51.114;13.780;2022-09-03T08:27:58;22.10;1.00
573;DHT22;271;51.114;13.780;2022-09-03T08:30:28;22.00;1.00
573;DHT22;271;51.114;13.780;2022-09-03T08:32:55;22.20;1.00
573;DHT22;271;51.114;13.780;2022-09-03T08:35:23;22.40;1.00
573;DHT22;271;51.114;13.780;2022-09-03T08:37:50;22.70;1.00
573;DHT22;271;51.114;13.780;2022-09-03T08:40:19;22.80;1.00
573;DHT22;271;51.114;13.780;2022-09-03T08:42:59;22.90;1.00
573;DHT22;271;51.114;13.780;2022-09-03T08:45:31;23.30;1.00
573;DHT22;271;51.114;13.780;2022-09-03T08:48:04;23.30;1.00
573;DHT22;271;51.114;13.780;2022-09-03T08:50:37;23.20;1.00
573;DHT22;271;51.114;13.780;2022-09-03T08:53:09;23.20;1.00
573;DHT22;271;51.114;13.780;2022-09-03T08:55:42;23.20;1.00
573;DHT22;271;51.114;13.780;2022-09-03T08:58:12;23.50;1.00
573;DHT22;271;51.114;13.780;2022-09-03T09:00:48;23.70;1.00
573;DHT22;271;51.114;13.780;2022-09-03T09:03:37;23.90;1.00
573;DHT22;271;51.114;13.780;2022-09-03T09:06:15;24.20;1.00
573;DHT22;271;51.114;13.780;2022-09-03T09:08:51;24.40;1.00
573;DHT22;271;51.114;13.780;2022-09-03T09:11:39;24.50;1.00
573;DHT22;271;51.114;13.780;2022-09-03T09:14:15;24.10;1.00
573;DHT22;271;51.114;13.780;2022-09-03T09:16:53;24.40;1.00
573;DHT22;271;51.114;13.780;2022-09-03T09:19:35;24.30;1.00
573;DHT22;271;51.114;13.780;2022-09-03T09:22:09;24.30;1.00
573;DHT22;271;51.114;13.780;2022-09-03T09:24:40;24.30;1.00
573;DHT22;271;51.114;13.780;2022-09-03T09:27:07;24.60;1.00
573;DHT22;271;51.114;13.780;2022-09-03T09:29:36;24.90;1.00
573;DHT22;271;51.114;13.780;2022-09-03T09:32:08;25.20;1.00
573;DHT22;271;51.114;13.780;2022-09-03T09:34:37;25.40;1.00
573;DHT22;271;51.114;13.780;2022-09-03T09:37:09;25.50;1.00
573;DHT22;271;51.114;13.780;2022-09-03T09:39:38;25.60;1.00
573;DHT22;271;51.114;13.780;2022-09-03T09:42:09;25.30;1.00
573;DHT22;271;51.114;13.780;2022-09-03T09:44:38;25.40;1.00
573;DHT22;271;51.114;13.780;2022-09-03T09:47:06;25.30;1.00
573;DHT22;271;51.114;13.780;2022-09-03T09:49:35;24.80;1.00
573;DHT22;271;51.114;13.780;2022-09-03T09:52:09;24.90;1.00
573;DHT22;271;51.114;13.780;2022-09-03T09:54:38;24.80;1.00
573;DHT22;271;51.114;13.780;2022-09-03T09:57:07;24.90;1.00
573;DHT22;271;51.114;13.780;2022-09-03T09:59:34;24.90;1.00
573;DHT22;271;51.114;13.780;2022-09-03T10:02:11;24.80;1.00
573;DHT22;271;51.114;13.780;2022-09-03T10:04:38;24.90;1.00
573;DHT22;271;51.114;13.780;2022-09-03T10:07:22;24.80;1.00
573;DHT22;271;51.114;13.780;2022-09-03T10:10:00;24.70;1.00
573;DHT22;271;51.114;13.780;2022-09-03T10:12:32;24.90;1.00
573;DHT22;271;51.114;13.780;2022-09-03T10:15:14;25.30;1.00
573;DHT22;271;51.114;13.780;2022-09-03T10:17:54;25.40;1.00
573;DHT22;271;51.114;13.780;2022-09-03T10:20:29;25.60;1.00
573;DHT22;271;51.114;13.780;2022-09-03T10:23:08;25.40;1.00
573;DHT22;271;51.114;13.780;2022-09-03T10:25:41;25.00;1.00
573;DHT22;271;51.114;13.780;2022-09-03T10:28:12;25.00;1.00
573;DHT22;271;51.114;13.780;2022-09-03T10:33:39;25.60;1.00
573;DHT22;271;51.114;13.780;2022-09-03T10:36:14;25.70;1.00
573;DHT22;271;51.114;13.780;2022-09-03T10:38:47;25.50;1.00
573;DHT22;271;51.114;13.780;2022-09-03T10:41:25;25.40;1.00
573;DHT22;271;51.114;13.780;2022-09-03T10:44:23;25.40;1.00
573;DHT22;271;51.114;13.780;2022-09-03T10:46:57;25.30;1.00
573;DHT22;271;51.114;13.780;2022-09-03T10:49:45;24.40;1.00
573;DHT22;271;51.114;13.780;2022-09-03T10:52:19;23.90;1.00
573;DHT22;271;51.114;13.780;2022-09-03T10:55:02;23.60;1.00
573;DHT22;271;51.114;13.780;2022-09-03T10:57:34;23.30;1.00
573;DHT22;271;51.114;13.780;2022-09-03T11:00:08;23.00;1.00
573;DHT22;271;51.114;13.780;2022-09-03T11:03:19;22.60;1.00
573;DHT22;271;51.114;13.780;2022-09-03T11:06:00;22.50;1.00
573;DHT22;271;51.114;13.780;2022-09-03T11:08:31;22.60;1.00
573;DHT22;271;51.114;13.780;2022-09-03T11:11:08;22.70;1.00
573;DHT22;271;51.114;13.780;2022-09-03T11:13:40;22.60;1.00
573;DHT22;271;51.114;13.780;2022-09-03T11:16:14;22.50;1.00
573;DHT22;271;51.114;13.780;2022-09-03T11:18:45;22.50;1.00
573;DHT22;271;51.114;13.780;2022-09-03T11:21:15;22.40;1.00
573;DHT22;271;51.114;13.780;2022-09-03T11:23:45;22.30;1.00
573;DHT22;271;51.114;13.780;2022-09-03T11:26:18;22.30;1.00
573;DHT22;271;51.114;13.780;2022-09-03T11:28:53;22.40;1.00
573;DHT22;271;51.114;13.780;2022-09-03T11:31:29;22.50;1.00
573;DHT22;271;51.114;13.780;2022-09-03T11:34:00;22.40;1.00
573;DHT22;271;51.114;13.780;2022-09-03T11:36:32;22.50;1.00
573;DHT22;271;51.114;13.780;2022-09-03T11:39:00;22.40;1.00
573;DHT22;271;51.114;13.780;2022-09-03T11:41:39;22.50;1.00
573;DHT22;271;51.114;13.780;2022-09-03T11:44:19;22.60;1.00
573;DHT22;271;51.114;13.780;2022-09-03T11:46:56;22.60;1.00
573;DHT22;271;51.114;13.780;2022-09-03T11:49:27;22.70;1.00
573;DHT22;271;51.114;13.780;2022-09-03T11:51:58;22.70;1.00
573;DHT22;271;51.114;13.780;2022-09-03T11:54:26;22.90;1.00
573;DHT22;271;51.114;13.780;2022-09-03T11:57:08;22.90;1.00
573;DHT22;271;51.114;13.780;2022-09-03T11:59:37;23.00;1.00
573;DHT22;271;51.114;13.780;2022-09-03T12:02:14;22.90;1.00
573;DHT22;271;51.114;13.780;2022-09-03T12:07:38;22.70;1.00
573;DHT22;271;51.114;13.780;2022-09-03T12:10:25;22.50;1.00
573;DHT22;271;51.114;13.780;2022-09-03T12:13:10;22.40;1.00
573;DHT22;271;51.114;13.780;2022-09-03T12:15:57;22.40;1.00
573;DHT22;271;51.114;13.780;2022-09-03T12:18:28;22.40;1.00
573;DHT22;271;51.114;13.780;2022-09-03T12:21:01;22.30;1.00
573;DHT22;271;51.114;13.780;2022-09-03T12:23:31;22.40;1.00
573;DHT22;271;51.114;13.780;2022-09-03T12:26:02;22.50;1.00
573;DHT22;271;51.114;13.780;2022-09-03T12:28:34;22.70;1.00
573;DHT22;271;51.114;13.780;2022-09-03T12:31:07;22.80;1.00
573;DHT22;271;51.114;13.780;2022-09-03T12:33:47;22.80;1.00
573;DHT22;271;51.114;13.780;2022-09-03T12:36:16;22.80;1.00
573;DHT22;271;51.114;13.780;2022-09-03T12:38:43;22.70;1.00
573;DHT22;271;51.114;13.780;2022-09-03T12:41:24;22.70;1.00
573;DHT22;271;51.114;13.780;2022-09-03T12:43:54;22.60;1.00
573;DHT22;271;51.114;13.780;2022-09-03T12:46:23;22.60;1.00
573;DHT22;271;51.114;13.780;2022-09-03T12:48:55;22.60;1.00
573;DHT22;271;51.114;13.780;2022-09-03T12:51:22;22.50;1.00
573;DHT22;271;51.114;13.780;2022-09-03T12:53:50;22.60;1.00
573;DHT22;271;51.114;13.780;2022-09-03T12:56:19;22.60;1.00
573;DHT22;271;51.114;13.780;2022-09-03T12:58:50;22.60;1.00
573;DHT22;271;51.114;13.780;2022-09-03T13:01:27;22.40;1.00
573;DHT22;271;51.114;13.780;2022-09-03T13:04:00;22.50;1.00
573;DHT22;271;51.114;13.780;2022-09-03T13:06:31;22.40;1.00
573;DHT22;271;51.114;13.780;2022-09-03T13:09:01;22.20;1.00
573;DHT22;271;51.114;13.780;2022-09-03T13:11:32;22.10;1.00
573;DHT22;271;51.114;13.780;2022-09-03T13:14:02;22.00;1.00
573;DHT22;271;51.114;13.780;2022-09-03T13:17:06;22.00;1.00
573;DHT22;271;51.114;13.780;2022-09-03T13:19:44;21.80;1.00
573;DHT22;271;51.114;13.780;2022-09-03T13:22:21;21.80;1.00
573;DHT22;271;51.114;13.780;2022-09-03T13:25:02;21.80;1.00
573;DHT22;271;51.114;13.780;2022-09-03T13:27:41;21.80;1.00
573;DHT22;271;51.114;13.780;2022-09-03T13:30:11;21.80;1.00
573;DHT22;271;51.114;13.780;2022-09-03T13:32:54;22.10;1.00
573;DHT22;271;51.114;13.780;2022-09-03T13:35:28;22.50;1.00
573;DHT22;271;51.114;13.780;2022-09-03T13:38:03;22.80;1.00
573;DHT22;271;51.114;13.780;2022-09-03T13:40:35;23.00;1.00
573;DHT22;271;51.114;13.780;2022-09-03T13:43:13;23.40;1.00
573;DHT22;271;51.114;13.780;2022-09-03T13:45:49;23.80;1.00
573;DHT22;271;51.114;13.780;2022-09-03T13:48:21;24.30;1.00
573;DHT22;271;51.114;13.780;2022-09-03T13:51:10;24.50;1.00
573;DHT22;271;51.114;13.780;2022-09-03T13:53:45;24.40;1.00
573;DHT22;271;51.114;13.780;2022-09-03T13:56:31;24.90;1.00
573;DHT22;271;51.114;13.780;2022-09-03T13:59:06;25.20;1.00
573;DHT22;271;51.114;13.780;2022-09-03T14:01:54;24.90;1.00
573;DHT22;271;51.114;13.780;2022-09-03T14:04:33;25.30;1.00
573;DHT22;271;51.114;13.780;2022-09-03T14:07:10;25.50;1.00
573;DHT22;271;51.114;13.780;2022-09-03T14:09:47;25.00;1.00
573;DHT22;271;51.114;13.780;2022-09-03T14:12:24;25.20;1.00
573;DHT22;271;51.114;13.780;2022-09-03T14:14:59;25.40;1.00
573;DHT22;271;51.114;13.780;2022-09-03T14:17:37;24.90;1.00
573;DHT22;271;51.114;13.780;2022-09-03T14:20:11;24.60;1.00
573;DHT22;271;51.114;13.780;2022-09-03T14:22:47;24.80;1.00
573;DHT22;271;51.114;13.780;2022-09-03T14:25:17;24.80;1.00
573;DHT22;271;51.114;13.780;2022-09-03T14:27:44;24.40;1.00
573;DHT22;271;51.114;13.780;2022-09-03T14:30:26;23.80;1.00
573;DHT22;271;51.114;13.780;2022-09-03T14:33:00;23.50;1.00
573;DHT22;271;51.114;13.780;2022-09-03T14:35:35;23.30;1.00
573;DHT22;271;51.114;13.780;2022-09-03T14:38:31;23.30;1.00
573;DHT22;271;51.114;13.780;2022-09-03T14:41:04;23.30;1.00
573;DHT22;271;51.114;13.780;2022-09-03T14:43:52;23.10;1.00
573;DHT22;271;51.114;13.780;2022-09-03T14:46:34;23.00;1.00
573;DHT22;271;51.114;13.780;2022-09-03T14:49:28;22.80;1.00
573;DHT22;271;51.114;13.780;2022-09-03T14:52:10;22.80;1.00
573;DHT22;271;51.114;13.780;2022-09-03T14:57:52;22.80;1.00
573;DHT22;271;51.114;13.780;2022-09-03T15:00:32;22.80;1.00
573;DHT22;271;51.114;13.780;2022-09-03T15:03:18;22.80;1.00
573;DHT22;271;51.114;13.780;2022-09-03T15:06:06;22.70;1.00
573;DHT22;271;51.114;13.780;2022-09-03T15:08:48;22.70;1.00
573;DHT22;271;51.114;13.780;2022-09-03T15:11:19;22.70;1.00
573;DHT22;271;51.114;13.780;2022-09-03T15:13:51;22.60;1.00
573;DHT22;271;51.114;13.780;2022-09-03T15:16:35;22.50;1.00
573;DHT22;271;51.114;13.780;2022-09-03T15:19:12;22.50;1.00
573;DHT22;271;51.114;13.780;2022-09-03T15:21:55;22.50;1.00
573;DHT22;271;51.114;13.780;2022-09-03T15:24:34;22.50;1.00
573;DHT22;271;51.114;13.780;2022-09-03T15:27:15;22.50;1.00
573;DHT22;271;51.114;13.780;2022-09-03T15:29:51;22.40;1.00
573;DHT22;271;51.114;13.780;2022-09-03T15:32:29;22.30;1.00
573;DHT22;271;51.114;13.780;2022-09-03T15:35:08;22.10;1.00
573;DHT22;271;51.114;13.780;2022-09-03T15:37:41;22.10;1.00
573;DHT22;271;51.114;13.780;2022-09-03T15:40:21;22.10;1.00
573;DHT22;271;51.114;13.780;2022-09-03T15:42:54;22.10;1.00
573;DHT22;271;51.114;13.780;2022-09-03T15:45:33;22.20;1.00
573;DHT22;271;51.114;13.780;2022-09-03T15:48:18;22.00;1.00
573;DHT22;271;51.114;13.780;2022-09-03T15:50:52;21.90;1.00
573;DHT22;271;51.114;13.780;2022-09-03T15:53:29;22.00;1.00
573;DHT22;271;51.114;13.780;2022-09-03T15:56:20;21.90;1.00
573;DHT22;271;51.114;13.780;2022-09-03T15:58:54;21.80;1.00
573;DHT22;271;51.114;13.780;2022-09-03T16:01:43;21.80;1.00
573;DHT22;271;51.114;13.780;2022-09-03T16:04:24;21.80;1.00
573;DHT22;271;51.114;13.780;2022-09-03T16:06:57;21.80;1.00
573;DHT22;271;51.114;13.780;2022-09-03T16:09:34;21.70;1.00
573;DHT22;271;51.114;13.780;2022-09-03T16:12:13;21.70;1.00
573;DHT22;271;51.114;13.780;2022-09-03T16:14:45;21.70;1.00
573;DHT22;271;51.114;13.780;2022-09-03T16:17:22;21.70;1.00
573;DHT22;271;51.114;13.780;2022-09-03T16:19:54;21.70;1.00
573;DHT22;271;51.114;13.780;2022-09-03T16:22:26;21.70;1.00
573;DHT22;271;51.114;13.780;2022-09-03T16:24:59;21.70;1.00
573;DHT22;271;51.114;13.780;2022-09-03T16:27:32;21.70;1.00
573;DHT22;271;51.114;13.780;2022-09-03T16:30:07;21.70;1.00
573;DHT22;271;51.114;13.780;2022-09-03T16:32:46;21.70;1.00
573;DHT22;271;51.114;13.780;2022-09-03T16:35:26;21.70;1.00
573;DHT22;271;51.114;13.780;2022-09-03T16:38:09;21.80;1.00
573;DHT22;271;51.114;13.780;2022-09-03T16:40:44;21.70;1.00
573;DHT22;271;51.114;13.780;2022-09-03T16:43:23;21.70;1.00
573;DHT22;271;51.114;13.780;2022-09-03T16:46:02;21.70;1.00
573;DHT22;271;51.114;13.780;2022-09-03T16:48:38;21.70;1.00
573;DHT22;271;51.114;13.780;2022-09-03T16:51:14;21.60;1.00
573;DHT22;271;51.114;13.780;2022-09-03T16:53:52;21.60;1.00
573;DHT22;271;51.114;13.780;2022-09-03T16:56:43;21.60;1.00
573;DHT22;271;51.114;13.780;2022-09-03T16:59:28;21.60;1.00
573;DHT22;271;51.114;13.780;2022-09-03T17:02:09;21.50;1.00
573;DHT22;271;51.114;13.780;2022-09-03T17:05:03;21.50;1.00
573;DHT22;271;51.114;13.780;2022-09-03T17:07:42;21.50;1.00
573;DHT22;271;51.114;13.780;2022-09-03T17:10:22;21.40;1.00
573;DHT22;271;51.114;13.780;2022-09-03T17:13:04;21.30;1.00
573;DHT22;271;51.114;13.780;2022-09-03T17:15:39;21.20;1.00
573;DHT22;271;51.114;13.780;2022-09-03T17:18:26;21.00;1.00
573;DHT22;271;51.114;13.780;2022-09-03T17:21:08;20.80;1.00
573;DHT22;271;51.114;13.780;2022-09-03T17:24:09;20.70;1.00
573;DHT22;271;51.114;13.780;2022-09-03T17:26:48;20.50;1.00